lickitwellhiem's sites:

title views votes rating creation
?Fear and Loathing in 1077 4,868 88 (4.26)  2008-10-05
?link takes a bunch of acid 2,264 67 (3.99)  2008-10-13
?4 tabs deep in Hyrule 3,844 92 (3.98)  2008-10-24
?important movie quotes (#10) 6,809 101 (3.99)  2008-11-19
?important movie quotes (#9) 8,497 210 (3.95)  2008-11-24
?MARY! WHAT ABOUT THE SPORES? 5,902 70 (4.01)  2008-12-13
?2 SITES IN ONE!!!! megadeals on ytmnd no loose o... 9,616 356 (4.18)  2008-12-16
?forest* 1,650 70 (3.77)  2009-01-14
?important movie quotes (#8) 3,643 62 (3.97)  2009-02-04
?apple juice brain 2,257 58 (4.05)  2009-02-05
?imporant movie quotes (#6) 4,466 112 (4.19)  2009-02-06
?(nsfw) boy discovers Heather Brooke 4,368 49 (4.04)  2009-02-24
?chocolate stalloney 1,467 30 (4.20)  2009-02-26
?lost Goosebumps episode 2,879 34 (3.94)  2009-02-27
?ytmnd interlewd: wind 1,833 59 (4.08)  2009-03-01
?After Effects poop with hip hop beat. I keep changi... 10,270 432 (4.33)  2009-03-02
?my backyard 1,416 34 (3.82)  2009-03-09
?(nsfw) geppetto real boy 3,383 46 (3.78)  2009-03-14
?(nsfw) go mommy 7,038 133 (4.35)  2009-03-21
?title changed (to this) 5,577 244 (4.18)  2009-03-22
?(nsfw) kirb your enthusiasm 3,393 75 (3.71)  2009-03-27
?(nsfw) kirby thinks a prolapse is something to joke a... 3,579 56 (3.52)  2009-03-27
?(nsfw) kirby enjoys watching Stop! Or My Mom Wil... 6,116 116 (4.08)  2009-03-30
?+ + 1,142 38 (4.11)  2009-04-02
?(nsfw) i originally thought this was funny bcaus shes... 2,191 33 (3.58)  2009-04-13
?town warning: beast 5,531 97 (4.04)  2009-04-15
?(nsfw) ™™™™TM©TM... 4,812 31 (3.94)  2009-04-18
?Important_Movie_Quotes_Important_Movie_Boats: ... 892 21 (3.57)  2009-04-19
?beast.gif 2,811 40 (4.03)  2009-04-22
?kirby gets Planet Earth™'d and neither li... 4,262 74 (4.04)  2009-04-23
?Breakfast Fun Time Stallone Friends 4,265 48 (4.17)  2009-04-24
?Stallone tries to sleep but cant stop saying Bakin An... 4,685 74 (4.07)  2009-04-27
?art site about drowning 5,415 199 (4.19)  2009-04-28
?(nsfw) a site to appeal to crap users 4,103 130 (4.13)  2009-05-04
?mike tyson punches ipods while kirby watches a site... 4,074 57 (3.88)  2009-05-06
?(nsfw) Marcy Windmillers wins the prize 8,765 232 (4.38)  2009-05-09
?oops it was the boat room 4,234 56 (4.09)  2009-05-11
?death of the artfag hank 4,664 64 (4.02)  2009-05-12
?medieval pez dispensers 7,578 76 (4.08)  2009-05-13
?medieval pez battle 2,247 25 (3.88)  2009-05-14
?hilarious joke about pez for the contest 7,250 58 (4.02)  2009-05-15
?best meme, you may have seen this already 3,186 28 (3.93)  2009-05-29
?sequel to the overwhelmingly popular meme .GIF ... 1,705 34 (3.85)  2009-05-29
?music group based off the PUPular meme .GIF DO... 2,316 35 (4.06)  2009-05-29
?(nsfw) new character Braxton Contest 16,485 314 (4.16)  2009-06-14
?Hilarious Paint™ 1,623 43 (3.93)  2009-06-29
?hank finds an anime dvd menu 3,525 34 (3.85)  2009-06-30
?if people die then why is michael jackson still in all hi... 1,718 48 (3.75)  2009-07-02
?(nsfw) wild iraqi diglett appears 24,445 463 (4.62)  2009-07-05
?Baron Lasers is sent to get mananimals yet retrieve... 3,648 46 (4.09)  2009-07-15
?falling4u 1,263 22 (3.82)  2009-07-17
?WTKB 3,869 113 (4.00)  2009-07-28
?tourny3: drunk chicks at the beach 14,678 237 (4.22)  2009-07-31
?disturby 2,189 74 (3.99)  2009-08-04
?AUDIOCHIPTMND: the audio chip in this doll is not f... 1,455 31 (3.77)  2009-08-07
?this doll has no audio...thats whats wrong with what t... 2,942 32 (4.00)  2009-08-09
?(nsfw) MY COCONUT IS ANGRY 1,947 25 (4.04)  2009-08-12
?Sienfeld Sound Collection Pt 1 1,826 18 (3.56)  2009-08-13
?(nsfw) spiderman girls 2,423 33 (3.76)  2009-08-13
?shop.ytmnd.com 4,556 130 (4.22)  2009-09-06
?CHALLENGE: create audio 1,761 57 (4.02)  2009-09-27
?M5 P41N7 P1ZZ4 1,587 34 (4.06)  2009-09-30
?B4R0N_P1ZZ4 4,667 105 (4.12)  2009-10-06
?baron lasers gets a P1ZZ4 massage from two tople... 3,193 49 (3.96)  2009-10-10
?B4R0N_P1ZZ4 wants Steve Lasres' p1zz4 2,448 34 (4.09)  2009-10-10
?baron lasers sourcefile 1,525 27 (4.30)  2009-10-11
?baron lasers walks into a jar 2,388 51 (4.22)  2009-10-11
?where's waldo finds lasers 4,795 77 (3.96)  2009-10-12
?max tries to run up a greygoose bottle with nice edits... 4,387 78 (3.97)  2009-10-19
?a confrontation 12,159 207 (4.12)  2009-10-21
?max's relaxing hike 1,652 43 (3.88)  2009-10-24
?baron "walk around in circles" lasers 3,432 45 (3.98)  2009-10-25
?(nsfw) temp site 2,219 41 (3.95)  2009-11-11
?Uncle PhilTMND: le petat beaux Potat swim 8,622 183 (4.19)  2009-11-15
?Uncle PhilTMND: movie trailer (refresh maybe guy... 13,119 260 (4.26)  2009-11-17
?Uncle PhilTMND: turkey dog 22,208 303 (4.38)  2009-11-19
?(nsfw) beaker BBW tribute 4,719 37 (3.81)  2009-11-27
?new moon movie poster 2,853 44 (4.07)  2009-11-29
?seizure guy causes seizures 26,589 183 (4.25)  2009-12-01
?matthew shepard death trip piano 3,253 76 (3.96)  2009-12-08
?christmas greeting christmas edit dvd 5 1,506 43 (3.81)  2009-12-11
?Best Kind of SiteTMND: Anime/Personal Site (Birth... 2,527 56 (3.84)  2009-12-20
?Arthur C. Clarkes 'Rendevous with Rama&#... 3,020 23 (3.83)  2009-12-24
?luke i am your uncle 21,731 331 (4.33)  2009-12-26
?clive owen blows his fun horn *SUPERIOR VERSI... 4,065 39 (3.62)  2009-12-30
?the reason why in magazines they put movie titles in ... 983 26 (3.19)  2010-01-06
?"cool hand" luke tests his "cool ne... 20,391 273 (4.25)  2010-01-07
?i can't tell her - but can i show her?? 1,747 35 (3.71)  2010-01-11
?(nsfw) /users/jeff 1,388 22 (3.64)  2010-01-18
?shirt vs. hat 2,893 45 (3.93)  2010-01-19
?Year of the Pup Tent 619 18 (3.61)  2010-01-21
?i made these characters i made the stallone voice (n... 909 17 (3.59)  2010-01-24
?monty fish pet 1,876 45 (3.76)  2010-01-25
?we all know stallone is genius 5,253 108 (4.02)  2010-01-25
?fourestation 8,813 213 (4.08)  2010-01-26
?< < < hi < < < 3,503 94 (3.84)  2010-01-31
?fantastic planet 3,245 70 (3.89)  2010-02-08
?ABC's Lost ipad promo 5,073 119 (4.02)  2010-02-09
?DEW!!!!!animated 4,274 54 (4.02)  2010-02-11
?the uncle parasite 10,966 252 (4.26)  2010-02-14
?turkey origins 5,926 91 (3.92)  2010-02-17
?p. daddy plays a looping .wav for the contest on yt... 1,900 29 (3.66)  2010-02-22
?The Legend of Chewpacca and the Ready for Ad... 1,919 47 (3.79)  2010-02-24
?chewpacca toolkit (arttmnd) 1,584 17 (3.47)  2010-02-25
?(nsfw) Jim and Pam and the Crude and Poorly Ex... 11,783 105 (3.87)  2010-03-01
?attic adventure: the animated adventure of a little ba... 1,839 45 (3.78)  2010-03-03
?attic support column adventure 1,020 24 (3.92)  2010-03-04
?life as art, place beauty on thy head 3,894 106 (3.87)  2010-03-09
?file under 2,015 39 (3.67)  2010-03-10
?artMND: death of the artfag hank (artMND version) 2,820 43 (4.00)  2010-03-15
?klingdong pickup artist 2,522 69 (3.80)  2010-05-08
?fourest runs from a single downvote 7,716 170 (4.07)  2010-05-09
?Klamm Family Clam Shack 3,919 56 (3.95)  2010-06-10
?(nsfw) mel_gibson 3,487 41 (3.61)  2010-07-20
?Cowboys Up 5,848 57 (4.02)  2010-07-24
?an awkward bluff 60,868 605 (4.64)  2010-08-13
?rodheh for the iPhone 4 4,306 77 (3.95)  2010-08-23
?(nsfw) funny ad 5,539 44 (3.89)  2010-10-11
?Go! Bwaah!! Rave Catastrophe 13,598 125 (4.27)  2010-10-26
?great bowl, i've seen no other like it 5,774 71 (4.24)  2010-11-05
?(nsfw) MMMuah! 6,136 58 (4.00)  2010-11-11
?somebody liked your gif 2,390 33 (3.64)  2010-11-29
?NEDM Punter 3,784 44 (3.86)  2011-01-09
?Adama Vagina, Uncut Battlestar 5,248 15 (4.13)  2011-01-13
?(nsfw) space battle at gibson station 11,230 46 (3.61)  2011-01-13
?(nsfw) best iphone surprise fad 5,576 45 (3.76)  2011-03-14
?(nsfw) airport stripsearch booth ballad 10,988 111 (4.13)  2011-03-15
?I think my Sega Genesis broke 15,754 85 (4.05)  2011-03-16
?basic instink 19,233 134 (4.23)  2011-03-17
?(nsfw) rebecca black, the future 7,312 60 (3.95)  2011-03-23
?weekend pass 2,081 38 (4.05)  2011-04-25
?this (title changed because the original sucked and th... 5,064 92 (4.23)  2011-05-17
?Claudius Can't Cope 3,542 72 (3.64)  2011-09-07
?ViewmasterGeOrDi3 Deals With It 1,056 23 (3.30)  2011-09-13
?islanded 2,226 73 (3.67)  2011-09-16
?my new site p 1,107 16 (3.38)  2011-10-05
?octopus runs it pt.1 3,099 86 (3.94)  2011-10-06
?fearcondom secret asset 865 18 (3.06)  2011-10-13
?CONTESTmnd, the new Contest on YTMND 846 20 (3.65)  2011-11-30
?pokemon beach 955 17 (3.47)  2011-12-03
?music video (high production value) 4,430 104 (4.01)  2011-12-19
?Nurse Jenni 2,265 21 (2.90)  2011-12-23
?(nsfw) eating up internet comedy material 3,194 51 (3.86)  2011-12-30
?my current desktop background 854 9 (3.67)  2012-01-06
?CameronDiaz MembershipGenius 699 8 (3.00)  2012-01-06
?snowkitty kopter like play string 1,068 21 (4.00)  2012-01-10
?Agent Helena Digs Around Ytmnd 5,576 54 (3.98)  2012-01-23
?Angie Harmon: Actress, Leader 5,228 48 (3.69)  2012-01-26
?(nsfw) I HAVE NEEDS TOOtmnd 1,345 23 (3.48)  2012-02-14
?my 1st short bone stiggy 1,283 19 (3.95)  2012-03-16
?PETITION QUESTION 1,268 26 (3.77)  2012-04-23
?artistic user reference (satire) 925 19 (3.68)  2012-04-29
?hey guys mario on the news here 1,906 53 (3.83)  2012-05-01
?ROFLcon 2012 max sighting 4,730 61 (4.08)  2012-05-05
?blueman group dislikes justin beiber 1,409 12 (3.58)  2012-05-06
?(nsfw) High School Guitar Hero (spinoff sort-of repo... 1,863 25 (3.80)  2012-05-08
?Sometimes It's October #6 1,601 30 (3.30)  2012-06-08
?Sometimes It's October #7/ 4,404 73 (3.92)  2012-06-14